Latest Weather Observations for Mount Magnet Airport

IDW60801

Issued at 7:32 am WST Sunday 30 August 2015 (issued every 30 minutes, with the page automatically refreshed every 10 minutes)

About weather observations | Map of weather stations | Latest weather observations for WA | Other Formats
Station Details ID: 007600 Name: MOUNT MAGNET AERO Lat: -28.12 Lon: 117.84 Height: 407.0 m
Data from the previous 72 hours. | See also: Recent months at Mount Magnet Airport
Date/Time
WST
Temp
°C
App
Temp
°C
Dew
Point
Rel
Hum
%
Delta-T
°C
Wind Press
QNH
hPa
Press
MSL
hPa
Rain
since 9 am
mm
Dir
 
Spd
km/h
Gust
km/h
Spd
kts
Gust
kts
30/07:30am 13.6 11.1 10.9 84 1.4 SW 15 19 8 10 1020.2 1019.7 0.0
30/07:00am 13.1 10.3 11.3 89 1.0 SW 17 24 9 13 1019.8 1019.2 0.0
30/06:30am 12.9 11.3 11.6 92 0.7 SW 11 15 6 8 1019.2 1018.6 0.0
30/06:00am 12.7 9.9 11.4 92 0.7 WSW 17 20 9 11 1018.8 1018.3 0.0
30/05:30am 12.5 11.0 10.7 89 1.0 W 9 11 5 6 1018.5 1018.0 0.0
30/05:00am 12.6 11.0 10.3 86 1.2 W 9 11 5 6 1018.1 1017.6 0.0
30/04:30am 13.1 11.5 10.3 83 1.5 WSW 9 11 5 6 1017.8 1017.2 0.0
30/04:00am 13.0 11.7 10.0 82 1.6 WNW 7 9 4 5 1017.7 1017.1 0.0
30/03:30am 12.9 11.1 9.5 80 1.8 W 9 11 5 6 1017.6 1017.0 0.0
30/03:00am 13.2 11.4 9.5 78 1.9 WSW 9 9 5 5 1017.6 1017.0 0.0
30/02:30am 13.5 12.1 9.4 76 2.1 WSW 7 9 4 5 1017.5 1016.9 0.0
30/02:00am 13.8 11.9 9.0 73 2.5 WSW 9 11 5 6 1017.5 1016.9 0.0
30/01:30am 14.2 11.9 9.0 71 2.7 WSW 11 13 6 7 1017.5 1016.9 0.0
30/01:00am 14.9 12.7 9.3 69 2.9 WSW 11 13 6 7 1017.5 1016.9 0.0
30/12:30am 15.0 12.6 8.7 66 3.3 WSW 11 13 6 7 1017.4 1016.8 0.0
30/12:00am 15.5 12.6 8.0 61 3.8 WSW 13 17 7 9 1017.3 1016.7 0.0
 
Date/Time
WST
Temp
°C
App
Temp
°C
Dew
Point
Rel
Hum
%
Delta-T
°C
Wind Press
QNH
hPa
Press
MSL
hPa
Rain
since 9 am
mm
Dir
 
Spd
km/h
Gust
km/h
Spd
kts
Gust
kts
29/11:30pm 16.0 13.3 7.5 57 4.3 WSW 11 15 6 8 1017.2 1016.6 0.0
29/11:00pm 16.8 13.3 7.4 54 4.8 WSW 15 20 8 11 1017.3 1016.7 0.0
29/10:30pm 17.3 14.5 7.1 51 5.2 W 11 15 6 8 1017.3 1016.7 0.0
29/10:00pm 16.6 13.7 6.4 51 5.1 WNW 11 11 6 6 1017.3 1016.7 0.0
29/09:30pm 17.1 14.5 6.0 48 5.5 WNW 9 11 5 6 1017.2 1016.6 0.0
29/09:00pm 17.7 14.6 5.6 45 6.0 W 11 13 6 7 1017.1 1016.5 0.0
29/08:30pm 18.4 15.2 5.3 42 6.5 W 11 13 6 7 1017.0 1016.4 0.0
29/08:00pm 19.2 16.0 4.9 39 7.1 W 11 13 6 7 1016.7 1016.1 0.0
29/07:30pm 19.4 16.1 4.7 38 7.2 W 11 13 6 7 1016.3 1015.8 0.0
29/07:00pm 20.4 17.1 4.4 35 7.9 WSW 11 15 6 8 1016.1 1015.6 0.0
29/06:30pm 21.3 17.6 4.4 33 8.4 WSW 13 17 7 9 1015.7 1015.1 0.0
29/06:00pm 22.2 17.3 4.3 31 8.9 W 19 28 10 15 1015.3 1014.7 0.0
29/05:30pm 23.0 18.1 4.0 29 9.5 WSW 19 30 10 16 1014.9 1014.3 0.0
29/05:00pm 23.7 18.3 4.6 29 9.7 WSW 22 30 12 16 1014.4 1013.8 0.0
29/04:30pm 24.2 18.1 4.6 28 10.0 WSW 26 35 14 19 1014.3 1013.7 0.0
29/04:00pm 24.3 18.5 4.6 28 10.0 W 24 37 13 20 1014.1 1013.5 0.0
29/03:30pm 24.6 19.5 5.9 30 9.8 WSW 22 32 12 17 1014.0 1013.4 0.0
29/03:00pm 24.6 18.7 5.9 30 9.8 WSW 26 39 14 21 1013.7 1013.1 0.0
29/02:30pm 25.4 19.8 7.1 31 9.8 WSW 26 39 14 21 1013.6 1013.0 0.0
29/02:00pm 24.5 19.9 6.3 31 9.6 WSW 20 33 11 18 1013.7 1013.1 0.0
29/01:30pm 25.3 20.7 6.5 30 10.0 W 20 35 11 19 1014.0 1013.4 0.0
29/01:00pm 25.2 19.6 7.3 32 9.6 W 26 32 14 17 1014.2 1013.6 0.0
29/12:30pm 25.0 20.2 7.2 32 9.5 W 22 33 12 18 1014.4 1013.8 0.0
29/12:00pm 23.9 19.4 7.1 34 8.9 WSW 20 30 11 16 1014.9 1014.3 0.0
29/11:30am 23.1 18.7 7.2 36 8.4 WSW 20 28 11 15 1015.2 1014.6 0.0
29/11:00am 22.8 19.3 7.4 37 8.2 WSW 15 22 8 12 1015.5 1014.9 0.0
29/10:30am 21.0 18.5 8.3 44 6.8 SW 11 17 6 9 1015.7 1015.1 0.0
29/10:00am 19.3 17.7 8.6 50 5.7 SW 7 13 4 7 1015.9 1015.4 0.0
29/09:30am 17.8 15.3 8.4 54 4.9 SSW 11 15 6 8 1015.9 1015.4 0.0
29/09:00am 16.8 14.4 8.5 58 4.3 SSW 11 15 6 8 1015.9 1015.4 0.0
29/08:30am 15.9 13.4 8.4 61 3.9 WSW 11 15 6 8 1016.0 1015.5 0.0
29/08:00am 15.4 12.6 8.4 63 3.6 WSW 13 19 7 10 1015.7 1015.1 0.0
29/07:30am 14.4 11.9 8.4 67 3.1 W 11 15 6 8 1015.4 1014.8 0.0
29/07:00am 13.6 12.0 8.2 70 2.7 SE 6 7 3 4 1014.7 1014.1 0.0
29/06:30am 12.9 10.4 8.0 72 2.5 W 11 17 6 9 1014.8 1014.2 0.0
29/06:00am 13.5 10.5 7.7 68 2.9 SSW 13 20 7 11 1014.4 1013.8 0.0
29/05:30am 13.6 9.3 7.8 68 2.9 WSW 20 30 11 16 1014.6 1014.0 0.0
29/05:13am 13.2 8.2 7.9 70 2.7 W 24 41 13 22 1015.0 1014.4 0.0
29/05:00am 12.6 9.2 7.7 72 2.4 WSW 15 17 8 9 1014.3 1013.7 0.0
29/04:30am 11.7 11.1 7.4 75 2.1 CALM 0 0 0 0 1013.8 1013.3 0.0
29/04:00am 12.3 10.6 7.4 72 2.4 WSW 6 7 3 4 1013.8 1013.3 0.0
29/03:30am 13.4 10.8 7.6 68 2.9 SW 11 13 6 7 1013.8 1013.3 0.0
29/03:00am 13.5 10.5 7.5 67 3.0 WSW 13 15 7 8 1014.2 1013.6 0.0
29/02:30am 13.6 11.0 7.6 67 3.0 WSW 11 13 6 7 1014.6 1014.0 0.0
29/02:00am 14.1 13.5 7.4 64 3.4 CALM 0 0 0 0 1015.2 1014.6 0.0
29/01:30am 14.6 12.9 7.4 62 3.6 W 6 7 3 4 1015.7 1015.1 0.0
29/01:00am 14.7 12.4 7.3 61 3.7 WSW 9 11 5 6 1015.7 1015.1 0.0
29/12:30am 14.9 12.5 7.0 59 4.0 SW 9 9 5 5 1015.7 1015.1 0.0
29/12:00am 15.5 13.1 6.8 56 4.4 SSW 9 9 5 5 1016.0 1015.5 0.0
 
Date/Time
WST
Temp
°C
App
Temp
°C
Dew
Point
Rel
Hum
%
Delta-T
°C
Wind Press
QNH
hPa
Press
MSL
hPa
Rain
since 9 am
mm
Dir
 
Spd
km/h
Gust
km/h
Spd
kts
Gust
kts
28/11:30pm 15.8 13.2 6.0 52 4.8 S 9 11 5 6 1016.1 1015.6 0.0
28/11:00pm 16.1 13.7 5.1 48 5.3 SSE 7 9 4 5 1016.3 1015.8 0.0
28/10:30pm 17.5 13.8 4.5 42 6.3 SSW 13 15 7 8 1016.2 1015.7 0.0
28/10:00pm 17.8 14.1 4.4 41 6.5 SSW 13 15 7 8 1016.3 1015.8 0.0
28/09:30pm 18.4 15.5 4.9 41 6.6 SSW 9 11 5 6 1016.3 1015.8 0.0
28/09:00pm 19.1 16.3 5.2 40 6.9 SSW 9 11 5 6 1016.3 1015.8 0.0
28/08:30pm 19.8 17.1 5.5 39 7.2 SSW 9 11 5 6 1016.1 1015.6 0.0
28/08:00pm 20.8 17.6 5.2 36 7.8 SW 11 13 6 7 1015.9 1015.4 0.0
28/07:30pm 21.8 18.4 5.7 35 8.2 SW 13 15 7 8 1015.6 1015.0 0.0
28/07:00pm 22.6 19.1 5.5 33 8.7 SW 13 17 7 9 1015.4 1014.8 0.0
28/06:30pm 23.5 20.9 5.9 32 9.1 SW 9 11 5 6 1014.9 1014.3 0.0
28/06:00pm 24.9 22.0 4.6 27 10.4 SW 9 11 5 6 1014.5 1013.9 0.0
28/05:30pm 25.9 23.4 3.8 24 11.2 W 6 11 3 6 1014.1 1013.5 0.0
28/05:00pm 26.4 23.3 3.6 23 11.5 WNW 9 13 5 7 1014.1 1013.5 0.0
28/04:30pm 26.4 22.2 3.6 23 11.5 W 15 20 8 11 1014.0 1013.4 0.0
28/04:00pm 26.9 22.6 3.4 22 11.9 W 15 20 8 11 1014.1 1013.5 0.0
28/03:30pm 27.0 22.2 2.8 21 12.1 W 17 26 9 14 1014.2 1013.6 0.0
28/03:00pm 26.5 22.9 3.1 22 11.7 W 11 22 6 12 1014.3 1013.7 0.0
28/02:30pm 27.3 22.6 3.1 21 12.2 WNW 17 24 9 13 1014.4 1013.8 0.0
28/02:00pm 26.4 22.1 3.0 22 11.7 N 15 24 8 13 1014.7 1014.1 0.0
28/01:30pm 26.2 21.3 2.2 21 11.8 NW 17 28 9 15 1015.1 1014.5 0.0
28/01:00pm 26.1 22.0 2.1 21 11.8 N 13 26 7 14 1015.6 1015.0 0.0
28/12:30pm 25.7 22.0 2.4 22 11.5 N 11 19 6 10 1016.1 1015.6 0.0
28/12:00pm 24.7 19.7 1.6 22 11.1 N 17 24 9 13 1016.8 1016.2 0.0
28/11:30am 24.0 19.4 1.6 23 10.8 NNE 15 24 8 13 1017.2 1016.6 0.0
28/11:00am 22.9 18.1 2.4 26 9.9 N 17 24 9 13 1017.7 1017.1 0.0
28/10:30am 21.9 17.5 2.6 28 9.3 N 15 20 8 11 1018.0 1017.4 0.0
28/10:00am 20.2 17.8 5.4 38 7.4 N 7 17 4 9 1018.4 1017.9 0.0
28/09:30am 18.3 16.4 7.7 50 5.5 ENE 7 11 4 6 1018.5 1018.0 0.0
28/09:00am 16.1 16.0 9.5 65 3.5 CALM 0 0 0 0 1018.6 1018.1 0.2
28/08:30am 14.0 13.2 9.6 75 2.3 SE 4 6 2 3 1018.6 1018.1 0.2
28/08:00am 13.2 13.1 9.6 79 1.9 CALM 0 0 0 0 1018.4 1017.9 0.2
28/07:30am 12.2 12.0 9.0 81 1.6 CALM 0 6 0 3 1018.3 1017.8 0.2
28/07:00am 11.1 10.8 8.5 84 1.3 CALM 0 0 0 0 1018.2 1017.7 0.2
28/06:30am 10.9 10.6 8.5 85 1.2 CALM 0 0 0 0 1017.8 1017.2 0.2
28/06:00am 10.8 9.2 8.2 84 1.3 ENE 6 7 3 4 1017.5 1016.9 0.2
28/05:30am 11.9 11.7 9.1 83 1.4 CALM 0 0 0 0 1017.3 1016.7 0.2
28/05:00am 12.2 10.6 8.9 80 1.7 W 7 13 4 7 1017.4 1016.8 0.2
28/04:30am 12.2 10.2 8.5 78 1.9 W 9 13 5 7 1017.2 1016.6 0.2
28/04:00am 12.7 10.5 8.0 73 2.4 W 9 13 5 7 1017.0 1016.4 0.2
28/03:30am 13.1 10.3 6.9 66 3.1 W 11 15 6 8 1017.1 1016.5 0.2
28/03:00am 13.2 9.9 6.5 64 3.3 W 13 15 7 8 1017.1 1016.5 0.2
28/02:30am 13.2 10.7 6.5 64 3.3 SW 9 11 5 6 1017.1 1016.5 0.2
28/02:00am 12.9 11.4 8.4 74 2.3 ENE 6 7 3 4 1017.2 1016.6 0.2
28/01:30am 14.0 12.0 6.1 59 3.9 N 6 7 3 4 1017.2 1016.6 0.2
28/01:00am 14.7 12.4 5.8 55 4.3 NNE 7 9 4 5 1017.4 1016.8 0.2
28/12:30am 15.4 12.8 6.1 54 4.6 NNE 9 11 5 6 1017.4 1016.8 0.2
28/12:00am 15.5 12.6 6.5 55 4.5 NNE 11 13 6 7 1017.6 1017.0 0.2
 
Date/Time
WST
Temp
°C
App
Temp
°C
Dew
Point
Rel
Hum
%
Delta-T
°C
Wind Press
QNH
hPa
Press
MSL
hPa
Rain
since 9 am
mm
Dir
 
Spd
km/h
Gust
km/h
Spd
kts
Gust
kts
27/11:30pm 15.7 13.7 7.0 56 4.4 NE 7 9 4 5 1017.8 1017.2 0.2
27/11:00pm 16.3 13.9 7.0 54 4.7 NE 9 9 5 5 1017.7 1017.1 0.2
27/10:30pm 17.3 14.5 7.1 51 5.2 ENE 11 15 6 8 1017.7 1017.1 0.2
27/10:00pm 18.0 14.9 7.1 49 5.6 ENE 13 17 7 9 1018.0 1017.4 0.2
27/09:30pm 18.4 13.8 6.6 46 6.0 NE 20 30 11 16 1018.5 1018.0 0.2
27/09:00pm 19.0 14.4 6.5 44 6.4 NNE 20 30 11 16 1018.7 1018.2 0.0
27/08:30pm 20.4 16.2 4.0 34 8.0 ENE 15 24 8 13 1017.9 1017.3 0.0
27/08:00pm 20.7 16.1 3.9 33 8.2 NNE 17 28 9 15 1017.6 1017.0 0.0
27/07:30pm 20.7 16.1 3.9 33 8.2 NE 17 30 9 16 1017.7 1017.1 0.0
27/07:00pm 20.8 15.7 3.1 31 8.5 NE 19 24 10 13 1017.4 1016.8 0.0
27/06:30pm 20.6 16.5 4.2 34 8.1 ENE 15 19 8 10 1017.3 1016.7 0.0
27/06:00pm 21.3 16.9 4.8 34 8.2 E 17 24 9 13 1016.9 1016.3 0.0
27/05:30pm 22.6 19.2 4.2 30 9.2 NW 11 24 6 13 1017.5 1016.9 0.0
27/05:00pm 23.0 17.6 2.5 26 9.9 NE 20 28 11 15 1016.4 1015.9 0.0
27/04:30pm 23.7 19.6 2.5 25 10.3 NE 13 19 7 10 1016.3 1015.8 0.0
27/04:00pm 23.8 19.0 2.6 25 10.3 NE 17 24 9 13 1016.0 1015.5 0.0
27/03:30pm 24.6 19.4 2.7 24 10.8 NE 19 28 10 15 1016.2 1015.7 0.0
27/03:00pm 23.9 18.4 2.1 24 10.6 NE 20 28 11 15 1016.2 1015.7 0.0
27/02:30pm 24.4 17.5 2.5 24 10.7 N 28 41 15 22 1016.2 1015.7 0.0
27/02:00pm 23.6 17.8 2.4 25 10.3 NNE 22 30 12 16 1016.1 1015.6 0.0
27/01:30pm 24.0 16.5 1.0 22 10.9 N 30 44 16 24 1017.0 1016.4 0.0
27/01:00pm 24.4 18.6 0.0 20 11.4 NNE 20 37 11 20 1017.3 1016.7 0.0
27/12:30pm 24.3 17.8 0.6 21 11.2 NNE 24 35 13 19 1017.6 1017.0 0.0
27/12:00pm 23.2 17.5 0.3 22 10.6 NNE 20 30 11 16 1018.1 1017.6 0.0
27/11:30am 21.7 15.7 0.8 25 9.7 NNE 22 28 12 15 1018.6 1018.1 0.0
27/11:00am 21.0 14.8 -0.3 24 9.6 NNE 22 33 12 18 1019.2 1018.6 0.0
27/10:30am 19.6 12.5 -0.9 25 9.1 NNE 26 35 14 19 1019.5 1018.9 0.0
27/10:00am 18.9 11.9 -0.5 27 8.6 NNE 26 35 14 19 1019.5 1018.9 0.0
27/09:30am 18.5 11.1 -0.8 27 8.5 NNE 28 37 15 20 1019.4 1018.8 0.0
27/09:00am 17.2 10.9 -1.0 29 7.8 NNE 22 33 12 18 1019.5 1018.9 0.0
27/08:30am 15.8 10.0 -1.3 31 7.2 NE 19 28 10 15 1019.4 1018.8 0.0
27/08:00am 14.7 9.7 -1.4 33 6.7 NE 15 20 8 11 1019.2 1018.6 0.0

Other Formats:

Comma delimited format used in spreadsheet applications
http://www.bom.gov.au/fwo/IDW60801/IDW60801.94429.axf

JavaScript Object Notation format (JSON) in row-major order
http://www.bom.gov.au/fwo/IDW60801/IDW60801.94429.json